createdAt,value
2019-02-18T00:01:50.194Z,5.00
2019-02-18T00:04:19.735Z,4.83
2019-02-18T00:06:49.016Z,4.63
2019-02-18T00:09:19.998Z,4.50
2019-02-18T00:11:49.383Z,4.93
2019-02-18T00:14:20.465Z,5.20
2019-02-18T00:16:53.077Z,5.20
2019-02-18T00:19:22.704Z,5.27
2019-02-18T00:21:53.182Z,4.77
2019-02-18T00:24:22.645Z,5.17
2019-02-18T00:26:51.983Z,5.40
2019-02-18T00:29:22.983Z,4.50
2019-02-18T00:31:55.885Z,5.20
2019-02-18T00:34:25.489Z,5.07
2019-02-18T00:36:55.113Z,4.73
2019-02-18T00:39:24.718Z,4.90
2019-02-18T00:41:54.344Z,4.90
2019-02-18T00:44:24.003Z,5.10
2019-02-18T00:46:53.289Z,4.37
2019-02-18T00:49:22.716Z,4.80
2019-02-18T00:51:52.054Z,4.67
2019-02-18T00:54:21.386Z,4.60
2019-02-18T00:56:50.647Z,4.67
2019-02-18T00:59:19.918Z,4.70
2019-02-18T01:01:49.568Z,5.10
2019-02-18T01:04:19.113Z,4.60
2019-02-18T01:06:48.392Z,4.90
2019-02-18T01:09:17.711Z,5.20
2019-02-18T01:11:47.325Z,4.60
2019-02-18T01:14:18.155Z,4.70
2019-02-18T01:16:47.747Z,4.90
2019-02-18T01:19:17.391Z,4.63
2019-02-18T01:21:46.730Z,4.73
2019-02-18T01:24:16.135Z,4.73
2019-02-18T01:26:45.981Z,4.50
2019-02-18T01:29:22.757Z,4.50
2019-02-18T01:31:51.730Z,4.80
2019-02-18T01:34:20.998Z,4.80
2019-02-18T01:36:50.364Z,4.77
2019-02-18T01:39:19.711Z,4.33
2019-02-18T01:41:49.001Z,4.90
2019-02-18T01:44:18.667Z,5.17
2019-02-18T01:46:48.014Z,4.60
2019-02-18T01:49:17.640Z,4.80
2019-02-18T01:51:47.166Z,4.90
2019-02-18T01:54:16.470Z,5.17
2019-02-18T01:56:46.005Z,4.67
2019-02-18T01:59:17.746Z,4.40
2019-02-18T02:01:47.372Z,4.43
2019-02-18T02:04:16.734Z,4.53
2019-02-18T02:06:49.088Z,5.00
2019-02-18T02:09:23.250Z,4.33
2019-02-18T02:11:52.654Z,4.67
2019-02-18T02:14:22.474Z,4.67
2019-02-18T02:16:51.819Z,4.77
2019-02-18T02:19:22.286Z,4.80
2019-02-18T02:21:52.849Z,4.93
2019-02-18T02:24:22.698Z,5.10
2019-02-18T02:26:52.806Z,4.63
2019-02-18T02:29:23.620Z,4.37
2019-02-18T02:31:52.975Z,5.30
2019-02-18T02:34:22.574Z,4.50
2019-02-18T02:36:51.918Z,4.60
2019-02-18T02:39:21.239Z,4.80
2019-02-18T02:41:50.529Z,4.87
2019-02-18T02:44:20.216Z,4.37
2019-02-18T02:46:49.529Z,4.40
2019-02-18T02:49:19.188Z,4.43
2019-02-18T02:51:48.483Z,4.57
2019-02-18T02:54:18.073Z,4.60
2019-02-18T02:56:47.742Z,4.20
2019-02-18T02:59:17.276Z,4.23
2019-02-18T03:01:46.891Z,4.33
2019-02-18T03:04:16.270Z,4.90
2019-02-18T03:06:45.861Z,4.57
2019-02-18T03:09:15.468Z,4.40
2019-02-18T03:11:47.693Z,4.77
2019-02-18T03:14:17.056Z,4.70
2019-02-18T03:16:46.387Z,4.70
2019-02-18T03:19:22.988Z,4.63
2019-02-18T03:21:52.337Z,4.70
2019-02-18T03:24:21.734Z,4.53
2019-02-18T03:26:54.471Z,4.23
2019-02-18T03:30:13.008Z,3.90
2019-02-18T03:32:50.127Z,4.40
2019-02-18T03:35:19.397Z,4.27
2019-02-18T03:37:51.329Z,4.20
2019-02-18T03:40:21.007Z,4.20
2019-02-18T03:42:50.375Z,4.67
2019-02-18T03:45:20.515Z,4.70
2019-02-18T03:47:50.014Z,4.40
2019-02-18T03:50:19.459Z,4.07
2019-02-18T03:52:48.730Z,4.30
2019-02-18T03:55:18.139Z,3.97
2019-02-18T03:57:47.581Z,4.37
2019-02-18T04:00:16.857Z,4.30
2019-02-18T04:02:46.243Z,4.33
2019-02-18T04:05:15.941Z,3.90
2019-02-18T04:07:45.584Z,4.43
2019-02-18T04:10:15.386Z,4.37
2019-02-18T04:12:44.684Z,4.40
2019-02-18T04:15:14.479Z,4.40
2019-02-18T04:17:43.784Z,4.60
2019-02-18T04:20:13.145Z,4.00
2019-02-18T04:22:42.510Z,4.30
2019-02-18T04:25:12.173Z,4.20
2019-02-18T04:27:41.796Z,4.27
2019-02-18T04:30:13.592Z,4.37
2019-02-18T04:32:42.982Z,4.37
2019-02-18T04:35:12.322Z,4.20
2019-02-18T04:37:41.614Z,4.70
2019-02-18T04:40:11.014Z,4.30
2019-02-18T04:42:40.360Z,4.30
2019-02-18T04:45:10.059Z,4.77
2019-02-18T04:47:39.826Z,4.70
2019-02-18T04:50:09.379Z,4.30
2019-02-18T04:52:38.751Z,4.33
2019-02-18T04:55:08.850Z,4.37
2019-02-18T04:57:38.770Z,4.97
2019-02-18T05:00:09.263Z,4.97
2019-02-18T05:02:38.558Z,4.87
2019-02-18T05:05:08.251Z,4.83
2019-02-18T05:07:37.612Z,4.50
2019-02-18T05:10:08.113Z,4.27
2019-02-18T05:12:37.960Z,4.83
2019-02-18T05:15:07.845Z,4.60
2019-02-18T05:17:37.805Z,4.73
2019-02-18T05:20:17.524Z,4.60
2019-02-18T05:22:48.142Z,4.60
2019-02-18T05:25:17.480Z,4.90
2019-02-18T05:27:49.111Z,4.87
2019-02-18T05:30:19.148Z,4.70
2019-02-18T05:32:48.855Z,4.30
2019-02-18T05:35:18.250Z,4.50
2019-02-18T05:37:47.644Z,5.00
2019-02-18T05:40:17.016Z,4.20
2019-02-18T05:42:46.376Z,4.70
2019-02-18T05:45:15.924Z,4.80
2019-02-18T05:47:45.574Z,4.70
2019-02-18T05:50:14.931Z,5.20
2019-02-18T05:52:44.330Z,4.47
2019-02-18T05:55:13.974Z,4.50
2019-02-18T05:57:43.241Z,4.40
2019-02-18T06:00:13.975Z,4.57
2019-02-18T06:02:43.599Z,5.10
2019-02-18T06:05:13.272Z,4.90
2019-02-18T06:07:42.552Z,5.10
2019-02-18T06:10:13.863Z,4.97
2019-02-18T06:12:43.624Z,4.83
2019-02-18T06:15:13.111Z,5.17
2019-02-18T06:17:42.465Z,5.03
2019-02-18T06:20:12.118Z,4.83
2019-02-18T06:22:41.516Z,5.40
2019-02-18T06:25:10.880Z,5.20
2019-02-18T06:27:40.245Z,5.53
2019-02-18T06:30:10.237Z,5.53
2019-02-18T06:32:39.874Z,4.70
2019-02-18T06:35:09.491Z,5.27
2019-02-18T06:37:38.865Z,5.67
2019-02-18T06:40:08.648Z,5.60
2019-02-18T06:42:39.565Z,5.43
2019-02-18T06:45:34.413Z,4.77
2019-02-18T06:48:16.645Z,5.10
2019-02-18T06:50:46.171Z,5.20
2019-02-18T06:53:15.457Z,5.80
2019-02-18T06:55:48.364Z,5.03
2019-02-18T06:58:24.624Z,5.00
2019-02-18T07:00:58.933Z,5.63
2019-02-18T07:03:50.246Z,5.50
2019-02-18T07:06:34.486Z,5.20
2019-02-18T07:09:18.695Z,4.97
2019-02-18T07:11:56.167Z,5.40
2019-02-18T07:14:25.609Z,5.40
2019-02-18T07:17:22.218Z,6.10
2019-02-18T07:19:51.609Z,6.43
2019-02-18T07:22:20.886Z,5.67
2019-02-18T07:24:50.985Z,5.90
2019-02-18T07:27:20.378Z,6.23
2019-02-18T07:29:50.074Z,6.00
2019-02-18T07:32:19.722Z,6.47
2019-02-18T07:34:49.277Z,6.67
2019-02-18T07:37:19.904Z,6.90
2019-02-18T07:39:49.374Z,6.67
2019-02-18T07:42:18.640Z,6.90
2019-02-18T07:44:47.920Z,6.43
2019-02-18T07:47:17.189Z,6.37
2019-02-18T07:49:46.504Z,6.77
2019-02-18T07:52:16.404Z,6.63
2019-02-18T07:54:45.710Z,7.23
2019-02-18T07:57:14.984Z,6.73
2019-02-18T07:59:44.337Z,6.77
2019-02-18T08:02:13.986Z,6.47
2019-02-18T08:04:44.090Z,6.67
2019-02-18T08:07:13.467Z,7.00
2019-02-18T08:09:43.901Z,6.93
2019-02-18T08:12:13.607Z,6.87
2019-02-18T08:14:42.810Z,6.83
2019-02-18T08:17:12.170Z,7.00
2019-02-18T08:19:41.560Z,6.80
2019-02-18T08:22:10.870Z,6.70
2019-02-18T08:24:40.236Z,7.00
2019-02-18T08:27:09.640Z,6.20
2019-02-18T08:29:39.152Z,6.90
2019-02-18T08:32:10.711Z,6.30
2019-02-18T08:34:39.502Z,6.53
2019-02-18T08:37:08.946Z,6.90
2019-02-18T08:39:38.382Z,6.67
2019-02-18T08:42:07.943Z,7.60
2019-02-18T08:44:37.641Z,7.33
2019-02-18T08:47:07.045Z,6.63
2019-02-18T08:49:36.901Z,6.87
2019-02-18T08:52:06.281Z,7.23
2019-02-18T08:54:35.634Z,6.33
2019-02-18T08:57:05.337Z,7.17
2019-02-18T08:59:35.304Z,7.17
2019-02-18T09:02:05.043Z,6.93
2019-02-18T09:04:34.472Z,7.33
2019-02-18T09:07:03.816Z,6.87
2019-02-18T09:09:33.104Z,7.20
2019-02-18T09:12:02.675Z,6.97
2019-02-18T09:14:32.184Z,7.20
2019-02-18T09:17:02.073Z,7.20
2019-02-18T09:19:31.426Z,7.43
2019-02-18T09:22:18.779Z,6.90
2019-02-18T09:24:53.962Z,7.00
2019-02-18T09:27:23.728Z,7.10
2019-02-18T09:29:53.095Z,7.53
2019-02-18T09:32:22.475Z,7.53
2019-02-18T09:34:53.268Z,7.67
2019-02-18T09:37:23.013Z,7.17
2019-02-18T09:39:52.670Z,7.80
2019-02-18T09:42:22.067Z,8.23
2019-02-18T09:44:51.325Z,7.33
2019-02-18T09:47:20.871Z,7.43
2019-02-18T09:49:50.211Z,7.33
2019-02-18T09:52:19.544Z,7.17
2019-02-18T09:54:49.007Z,7.67
2019-02-18T09:57:18.657Z,7.70
2019-02-18T09:59:47.941Z,7.50
2019-02-18T10:02:17.571Z,7.53
2019-02-18T10:04:46.962Z,7.87
2019-02-18T10:07:19.525Z,7.47
2019-02-18T10:09:48.841Z,7.77
2019-02-18T10:12:18.942Z,7.80
2019-02-18T10:14:48.196Z,7.97
2019-02-18T10:17:17.534Z,8.27
2019-02-18T10:19:47.173Z,8.03
2019-02-18T10:22:16.775Z,8.27
2019-02-18T10:24:50.541Z,7.33
2019-02-18T10:27:17.092Z,7.30
2019-02-18T10:29:46.488Z,7.43
2019-02-18T10:32:15.776Z,7.47
2019-02-18T10:34:45.082Z,6.93
2019-02-18T10:37:14.659Z,7.63
2019-02-18T10:39:44.404Z,7.60
2019-02-18T10:42:14.084Z,7.57
2019-02-18T10:44:43.282Z,7.73
2019-02-18T10:47:12.977Z,7.27
2019-02-18T10:49:42.368Z,7.50
2019-02-18T10:52:12.069Z,7.50
2019-02-18T10:54:41.800Z,7.20
2019-02-18T10:57:11.334Z,7.17
2019-02-18T10:59:40.756Z,7.50
2019-02-18T11:02:10.848Z,7.43
2019-02-18T11:04:40.146Z,7.17
2019-02-18T11:07:09.856Z,7.57
2019-02-18T11:09:39.368Z,7.47
2019-02-18T11:12:08.681Z,7.63
2019-02-18T11:14:38.078Z,6.97
2019-02-18T11:17:07.405Z,7.13
2019-02-18T11:19:36.674Z,7.13
2019-02-18T11:22:06.550Z,7.13
2019-02-18T11:24:36.450Z,7.50
2019-02-18T11:27:06.110Z,7.03
2019-02-18T11:29:36.140Z,7.10
2019-02-18T11:32:05.538Z,6.77
2019-02-18T11:34:34.886Z,7.23
2019-02-18T11:37:04.240Z,7.50
2019-02-18T11:39:33.572Z,7.37
2019-02-18T11:42:02.919Z,7.47
2019-02-18T11:44:32.751Z,6.77
2019-02-18T11:47:02.253Z,6.97
2019-02-18T11:49:32.181Z,6.83
2019-02-18T11:52:03.935Z,6.97
2019-02-18T11:54:33.360Z,6.97
2019-02-18T11:57:03.120Z,6.93
2019-02-18T11:59:32.543Z,6.90
2019-02-18T12:02:02.639Z,6.73
2019-02-18T12:04:32.005Z,7.07
2019-02-18T12:07:01.353Z,6.93
2019-02-18T12:09:32.754Z,7.67
2019-02-18T12:12:02.178Z,7.10
2019-02-18T12:14:31.846Z,6.67
2019-02-18T12:17:01.632Z,6.60
2019-02-18T12:19:31.775Z,6.70
2019-02-18T12:22:01.898Z,6.37
2019-02-18T12:24:34.069Z,7.37
2019-02-18T12:27:03.407Z,6.80
2019-02-18T12:29:32.973Z,6.53
2019-02-18T12:32:05.209Z,6.60
2019-02-18T12:34:35.195Z,6.87
2019-02-18T12:37:04.643Z,7.00
2019-02-18T12:39:34.397Z,6.87
2019-02-18T12:42:03.720Z,7.17
2019-02-18T12:44:33.008Z,6.67
2019-02-18T12:47:03.879Z,7.07
2019-02-18T12:49:36.677Z,6.77
2019-02-18T12:52:06.413Z,6.97
2019-02-18T12:54:37.933Z,6.97
2019-02-18T12:57:07.479Z,6.97
2019-02-18T12:59:36.931Z,7.37
2019-02-18T13:02:06.374Z,7.00
2019-02-18T13:04:36.153Z,7.20
2019-02-18T13:07:05.544Z,7.50
2019-02-18T13:09:35.029Z,7.20
2019-02-18T13:12:06.632Z,7.03
2019-02-18T13:14:36.171Z,6.93
2019-02-18T13:17:05.847Z,7.10
2019-02-18T13:19:35.129Z,7.10
2019-02-18T13:22:04.602Z,7.23
2019-02-18T13:24:34.134Z,7.37
2019-02-18T13:27:03.389Z,6.90
2019-02-18T13:29:34.980Z,6.97
2019-02-18T13:32:04.628Z,7.63
2019-02-18T13:34:33.979Z,8.07
2019-02-18T13:37:04.581Z,8.13
2019-02-18T13:39:33.975Z,7.43
2019-02-18T13:42:07.701Z,7.10
2019-02-18T13:44:34.504Z,7.43
2019-02-18T13:47:03.907Z,8.30
2019-02-18T13:49:33.291Z,7.63
2019-02-18T13:52:02.682Z,7.23
2019-02-18T13:54:32.093Z,7.07
2019-02-18T13:57:04.543Z,7.50
2019-02-18T13:59:33.019Z,7.63
2019-02-18T14:02:02.461Z,7.20
2019-02-18T14:04:32.143Z,6.63
2019-02-18T14:07:01.850Z,6.97
2019-02-18T14:09:31.726Z,7.33
2019-02-18T14:12:01.009Z,7.50
2019-02-18T14:14:30.415Z,7.70
2019-02-18T14:17:02.856Z,7.20
2019-02-18T14:19:32.745Z,8.00
2019-02-18T14:22:02.099Z,7.40
2019-02-18T14:24:31.908Z,7.20
2019-02-18T14:27:03.037Z,7.83
2019-02-18T14:29:33.190Z,6.93
2019-02-18T14:32:02.931Z,7.67
2019-02-18T14:34:32.610Z,7.57
2019-02-18T14:37:01.972Z,7.27
2019-02-18T14:39:31.509Z,8.03
2019-02-18T14:42:01.075Z,7.13
2019-02-18T14:44:31.204Z,7.87
2019-02-18T14:47:01.500Z,7.50
2019-02-18T14:49:31.558Z,7.80
2019-02-18T14:52:00.950Z,7.80
2019-02-18T14:54:30.331Z,7.57
2019-02-18T14:57:00.312Z,7.77
2019-02-18T14:59:29.704Z,7.27
2019-02-18T15:01:59.533Z,7.73
2019-02-18T15:04:28.928Z,7.57
2019-02-18T15:06:58.218Z,7.43
2019-02-18T15:09:27.597Z,7.80
2019-02-18T15:12:01.463Z,7.97
2019-02-18T15:14:31.432Z,8.20
2019-02-18T15:17:00.779Z,7.73
2019-02-18T15:19:30.389Z,7.83
2019-02-18T15:21:59.787Z,8.10
2019-02-18T15:24:29.576Z,7.37
2019-02-18T15:26:59.244Z,8.53
2019-02-18T15:29:28.967Z,7.50
2019-02-18T15:31:58.584Z,7.60
2019-02-18T15:34:28.019Z,7.73
2019-02-18T15:37:00.535Z,8.47
2019-02-18T15:39:29.915Z,7.87
2019-02-18T15:41:59.391Z,8.00
2019-02-18T15:44:29.185Z,8.67
2019-02-18T15:46:58.689Z,7.80
2019-02-18T15:49:28.044Z,9.90
2019-02-18T15:51:57.599Z,8.20
2019-02-18T15:54:27.000Z,8.07
2019-02-18T15:56:56.653Z,7.40
2019-02-18T15:59:26.466Z,7.80
2019-02-18T16:01:56.524Z,8.40
2019-02-18T16:04:25.887Z,8.30
2019-02-18T16:06:55.550Z,8.20
2019-02-18T16:09:25.259Z,8.87
2019-02-18T16:11:55.381Z,8.73
2019-02-18T16:14:25.090Z,8.03
2019-02-18T16:16:54.513Z,8.37
2019-02-18T16:19:23.905Z,8.10
2019-02-18T16:21:54.004Z,7.73
2019-02-18T16:24:24.019Z,7.77
2019-02-18T16:26:53.445Z,8.37
2019-02-18T16:29:23.136Z,8.27
2019-02-18T16:31:52.897Z,8.03
2019-02-18T16:34:22.236Z,8.70
2019-02-18T16:36:51.561Z,8.27
2019-02-18T16:39:21.037Z,8.17
2019-02-18T16:41:50.397Z,9.47
2019-02-18T16:44:19.781Z,10.60
2019-02-18T16:46:49.069Z,9.40
2019-02-18T16:49:18.280Z,10.27
2019-02-18T16:51:47.699Z,9.70
2019-02-18T16:54:17.092Z,9.73
2019-02-18T16:56:47.299Z,9.07
2019-02-18T16:59:16.992Z,9.00
2019-02-18T17:01:46.620Z,9.77
2019-02-18T17:04:15.988Z,9.07
2019-02-18T17:06:45.374Z,10.23
2019-02-18T17:09:17.578Z,10.20
2019-02-18T17:11:47.181Z,9.87
2019-02-18T17:14:18.667Z,10.80
2019-02-18T17:16:48.956Z,10.83
2019-02-18T17:19:18.537Z,12.80
2019-02-18T17:21:48.067Z,11.77
2019-02-18T17:24:17.762Z,14.37
2019-02-18T17:26:47.198Z,16.23
2019-02-18T17:29:23.144Z,13.17
2019-02-18T17:31:52.585Z,13.60
2019-02-18T17:34:21.948Z,13.37
2019-02-18T17:36:51.276Z,13.30
2019-02-18T17:39:20.565Z,17.10
2019-02-18T17:41:50.173Z,13.90
2019-02-18T17:44:20.386Z,11.43
2019-02-18T17:46:50.270Z,12.87
2019-02-18T17:49:19.529Z,12.30
2019-02-18T17:51:49.139Z,11.60
2019-02-18T17:54:18.533Z,10.30
2019-02-18T17:56:47.895Z,10.80
2019-02-18T17:59:17.274Z,11.60
2019-02-18T18:01:55.407Z,10.30
2019-02-18T18:04:26.087Z,10.53
2019-02-18T18:06:59.108Z,9.37
2019-02-18T18:09:29.980Z,9.80
2019-02-18T18:12:02.576Z,9.40
2019-02-18T18:14:31.950Z,9.03
2019-02-18T18:17:03.061Z,9.43
2019-02-18T18:19:35.970Z,9.80
2019-02-18T18:22:06.572Z,10.17
2019-02-18T18:24:35.806Z,8.90
2019-02-18T18:27:05.794Z,8.73
2019-02-18T18:29:35.927Z,9.00
2019-02-18T18:32:05.672Z,8.50
2019-02-18T18:34:35.383Z,8.63
2019-02-18T18:37:04.740Z,9.03
2019-02-18T18:39:34.771Z,8.67
2019-02-18T18:42:04.167Z,7.90
2019-02-18T18:44:33.926Z,7.97
2019-02-18T18:47:03.588Z,7.77
2019-02-18T18:49:33.338Z,8.30
2019-02-18T18:52:02.715Z,7.80
2019-02-18T18:54:32.381Z,7.73
2019-02-18T18:57:04.217Z,8.70
2019-02-18T18:59:33.864Z,8.00
2019-02-18T19:02:04.142Z,7.50
2019-02-18T19:04:33.459Z,8.17
2019-02-18T19:07:02.889Z,7.60
2019-02-18T19:09:32.248Z,8.10
2019-02-18T19:12:01.575Z,7.17
2019-02-18T19:14:31.596Z,7.70
2019-02-18T19:17:01.751Z,7.30
2019-02-18T19:19:31.295Z,8.07
2019-02-18T19:22:00.657Z,7.77
2019-02-18T19:24:30.415Z,7.80
2019-02-18T19:26:59.769Z,8.07
2019-02-18T19:29:29.143Z,8.20
2019-02-18T19:31:58.500Z,8.00
2019-02-18T19:34:28.467Z,8.77
2019-02-18T19:36:58.075Z,9.00
2019-02-18T19:39:27.650Z,9.40
2019-02-18T19:41:57.454Z,9.80
2019-02-18T19:44:26.813Z,8.87
2019-02-18T19:46:56.170Z,8.30
2019-02-18T19:49:25.435Z,8.30
2019-02-18T19:51:55.149Z,8.33
2019-02-18T19:54:24.513Z,8.77
2019-02-18T19:56:54.399Z,8.73
2019-02-18T19:59:23.714Z,8.60
2019-02-18T20:01:53.458Z,7.87
2019-02-18T20:04:22.825Z,7.20
2019-02-18T20:06:52.275Z,7.50
2019-02-18T20:09:21.973Z,7.57
2019-02-18T20:11:51.271Z,7.40
2019-02-18T20:14:20.690Z,7.53
2019-02-18T20:16:50.015Z,8.53
2019-02-18T20:19:19.348Z,8.13
2019-02-18T20:21:49.149Z,8.13
2019-02-18T20:24:19.182Z,8.33
2019-02-18T20:26:48.568Z,8.17
2019-02-18T20:29:17.919Z,7.70
2019-02-18T20:31:47.557Z,7.33
2019-02-18T20:34:17.056Z,8.37
2019-02-18T20:36:47.453Z,8.40
2019-02-18T20:39:17.327Z,8.30
2019-02-18T20:41:46.732Z,8.03
2019-02-18T20:44:16.101Z,8.50
2019-02-18T20:46:45.480Z,8.13
2019-02-18T20:49:14.802Z,8.70
2019-02-18T20:51:44.154Z,7.97
2019-02-18T20:54:13.653Z,7.50
2019-02-18T20:56:43.032Z,7.97
2019-02-18T20:59:14.053Z,7.83
2019-02-18T21:01:44.124Z,8.20
2019-02-18T21:04:13.720Z,8.13
2019-02-18T21:06:44.749Z,8.40
2019-02-18T21:09:14.101Z,8.93
2019-02-18T21:11:43.588Z,8.40
2019-02-18T21:14:16.176Z,9.00
2019-02-18T21:16:44.527Z,10.47
2019-02-18T21:19:14.121Z,11.20
2019-02-18T21:21:43.567Z,10.00
2019-02-18T21:24:14.693Z,10.00
2019-02-18T21:26:44.047Z,10.57
2019-02-18T21:29:13.394Z,9.23
2019-02-18T21:31:42.732Z,10.93
2019-02-18T21:34:12.049Z,10.40
2019-02-18T21:36:41.324Z,9.17
2019-02-18T21:39:13.574Z,8.37
2019-02-18T21:41:42.915Z,8.40
2019-02-18T21:44:12.578Z,8.37
2019-02-18T21:46:41.915Z,8.50
2019-02-18T21:49:11.505Z,9.20
2019-02-18T21:51:41.215Z,8.67
2019-02-18T21:54:10.532Z,8.70
2019-02-18T21:56:39.851Z,8.83
2019-02-18T21:59:09.192Z,8.60
2019-02-18T22:01:38.647Z,8.43
2019-02-18T22:04:08.269Z,7.80
2019-02-18T22:06:37.479Z,7.87
2019-02-18T22:09:07.468Z,8.43
2019-02-18T22:11:36.863Z,8.47
2019-02-18T22:14:06.136Z,8.37
2019-02-18T22:16:35.502Z,8.27
2019-02-18T22:19:05.573Z,8.77
2019-02-18T22:21:35.169Z,8.53
2019-02-18T22:24:04.431Z,8.67
2019-02-18T22:26:33.736Z,8.33
2019-02-18T22:29:03.325Z,8.10
2019-02-18T22:31:32.668Z,8.17
2019-02-18T22:34:02.006Z,8.83
2019-02-18T22:36:31.362Z,7.77
2019-02-18T22:39:00.955Z,8.27
2019-02-18T22:41:30.445Z,8.60
2019-02-18T22:43:59.801Z,7.83
2019-02-18T22:46:29.144Z,8.73
2019-02-18T22:48:58.754Z,8.20
2019-02-18T22:51:28.615Z,9.00
2019-02-18T22:53:58.326Z,8.83
2019-02-18T22:56:27.650Z,8.87
2019-02-18T22:58:56.906Z,8.83
2019-02-18T23:01:26.295Z,8.80
2019-02-18T23:03:55.575Z,8.73
2019-02-18T23:06:25.175Z,8.70
2019-02-18T23:08:54.599Z,8.80
2019-02-18T23:11:23.883Z,9.13
2019-02-18T23:13:53.464Z,8.60
2019-02-18T23:16:22.739Z,8.97
2019-02-18T23:18:52.099Z,9.07
2019-02-18T23:21:22.081Z,9.00
2019-02-18T23:23:51.436Z,8.80
2019-02-18T23:26:20.808Z,8.90
2019-02-18T23:28:50.307Z,8.97
2019-02-18T23:31:19.995Z,9.47
2019-02-18T23:33:49.306Z,9.70
2019-02-18T23:36:18.589Z,10.30
2019-02-18T23:38:47.938Z,11.37
2019-02-18T23:41:17.606Z,10.80
2019-02-18T23:43:46.820Z,11.60
2019-02-18T23:46:16.176Z,11.50
2019-02-18T23:48:45.851Z,11.47
2019-02-18T23:51:15.219Z,11.90
2019-02-18T23:53:44.494Z,13.07
2019-02-18T23:56:14.148Z,13.97
2019-02-18T23:58:43.346Z,14.47
